Terminal Aerodrome Forecast
Issued by NWS Wakefield, VA

Home | Current Version | Previous Version | Text Only | Print | Product List | Glossary On
Versions: 1 2 3 4 5 6 7 8 9 10 11 12 13 14 15 16 17 18 19 20 21
000
FTUS41 KAKQ 010500 RRA
TAFSBY
TAF
KSBY 010542Z 0106/0206 VRB04KT P6SM VCSH BKN045 BKN060
     FM010900 00000KT 2SM BR BKN005
     FM011300 01004KT 5SM BR BKN012
     FM011400 01007KT P6SM SCT025
     FM011700 01010KT P6SM BKN030 BKN090
     FM012300 VRB04KT P6SM SCT030 BKN090=

USA.gov is the U.S. government's official web portal to all federal, state and local government web resources and services.